General Rodriguez, Argentina
Current Conditions -  °F | °C
As of 12:00 AM on Tuesday 21 Oct 2014 (Local Time) from SADF Reporting Station
Clear Clear  
Wind Chill: 17°   Ceiling: Unl
Heat Index: 17°   Visibility: 6mi
Dew Point: 13°   Wind: 7mph
Humidity: 77%   Direction: 50°NE
Pressure: 30.09"   Gusts: NA
Location:  34.6°S, 58.95°W
Report Text: SADF 210300Z 05006KT CAVOK 17/13 Q1019
Loading
Personal Weather Stations






























Interactive Weather Map
Tropical Storm Tracking
New forecast layout! Learn more

10-Day Weather Forecast

Advertisements
Track Severe Weather on mobile